Date,TemperatureHighF,TemperatureAvgF,TemperatureLowF,DewpointHighF,DewpointAvgF,DewpointLowF,HumidityHigh,HumidityAvg,HumidityLow,PressureMaxIn,PressureMinIn,WindSpeedMaxMPH,WindSpeedAvgMPH,GustSpeedMaxMPH,PrecipitationSumIn
2013-2-1,61.7,40.9,30.2,12.1,5.9,-0.3,31,24,14,29.80,29.62,10,3,10,0.00
2013-2-2,67.8,51.6,45.7,31.2,23.4,4.1,50,36,10,29.74,29.56,10,2,10,0.00
2013-2-3,69.3,55.7,39.9,22.7,10.8,0.3,45,21,7,29.74,29.41,8,1,8,0.00
2013-2-4,72.1,61.5,55.6,44.6,29.5,0.5,64,33,9,29.41,29.21,11,3,11,0.00
2013-2-5,65.7,58.2,54.9,56.7,50.2,44.1,83,75,48,29.44,29.29,5,0,5,0.00
2013-2-6,75.0,62.3,54.5,56.2,47.2,31.9,81,61,21,29.44,29.26,11,2,11,0.00
2013-2-7,80.1,67.4,55.9,51.2,38.1,10.7,71,40,8,29.50,29.20,13,5,13,0.00
2013-2-8,65.1,53.4,43.5,30.6,16.8,3.7,42,26,10,29.65,29.50,12,3,12,0.00
2013-2-9,60.4,50.4,46.9,54.1,35.4,21.0,80,57,31,29.56,29.18,11,4,11,0.00
2013-2-10,68.0,59.4,47.1,58.6,20.6,-1.0,81,31,7,29.41,29.09,15,2,15,0.91
2013-2-11,54.9,50.9,46.6,25.9,16.4,7.2,43,26,15,29.56,29.41,9,2,9,0.00
2013-2-12,48.9,47.0,42.4,40.3,34.9,25.3,76,63,43,29.44,29.26,10,2,10,0.28
2013-2-13,58.3,44.9,39.9,29.4,22.2,7.2,60,43,14,29.56,29.44,10,3,10,0.00
2013-2-14,70.2,53.3,36.3,32.8,17.3,6.0,65,30,9,29.53,29.41,8,1,8,0.00
2013-2-15,52.2,47.1,36.3,24.6,9.6,-4.9,39,23,11,29.80,29.50,10,3,10,0.00
2013-2-16,57.2,44.4,30.2,14.8,7.7,1.4,43,24,12,29.83,29.59,8,1,8,0.00
2013-2-17,70.9,55.8,39.9,30.9,13.4,6.1,39,22,9,29.59,29.32,15,4,15,0.00
2013-2-18,77.9,62.5,52.5,41.9,23.5,3.0,47,26,8,29.53,29.18,116,6,116,0.00
2013-2-19,61.9,51.7,38.8,17.1,6.5,-1.1,38,17,9,29.74,29.53,8,2,8,0.00
2013-2-20,51.8,44.6,40.6,30.0,22.6,6.9,57,43,16,29.59,29.21,11,3,11,0.08
2013-2-21,68.2,53.0,42.6,41.4,22.8,5.1,75,37,10,29.35,29.03,12,4,12,0.08
2013-2-22,50.2,41.0,32.4,23.4,12.0,5.0,46,32,16,29.56,29.32,10,3,10,0.00
2013-2-23,56.5,46.0,37.6,17.6,10.2,3.0,42,25,12,29.50,29.35,6,1,6,0.00
2013-2-24,70.5,59.4,34.2,27.2,15.6,6.7,53,21,9,29.35,29.06,12,3,12,0.00
2013-2-25,61.9,52.1,40.3,37.9,22.6,3.8,49,33,12,29.06,28.88,15,4,15,0.04
2013-2-26,58.5,46.5,40.6,19.6,16.7,7.1,41,31,14,29.32,29.06,15,4,15,0.00
2013-2-27,56.8,48.0,38.1,19.4,9.8,-2.3,44,25,10,29.62,29.29,13,4,13,0.00
2013-2-28,58.6,46.8,36.3,15.7,8.0,-2.7,41,23,10,29.71,29.56,15,4,15,0.00